Time;durP1;ratioP1;P1;durP2;ratioP2;P2;SDS_P1;SDS_P2;PMS_P1;PMS_P2;Temp;Humidity;BMP_temperature;BMP_pressure;BME280_temperature;BME280_humidity;BME280_pressure;Samples;Min_cycle;Max_cycle;Signal;HPM_P1;HPM_P2
2023/03/21 00:00:54;;;;;;;11.77;1.47;;;;;;;-145.69;100.00;52464.19;5128434;28;20209;-83
2023/03/21 00:03:21;;;;;;;3.27;1.63;;;;;;;-145.69;100.00;52436.47;5128071;28;20203;-83
2023/03/21 00:05:50;;;;;;;2.13;1.63;;;;;;;-145.69;100.00;52476.06;5113889;28;20202;-83
2023/03/21 00:08:17;;;;;;;3.83;1.90;;;;;;;-145.69;100.00;52489.94;5107304;28;20670;-83
2023/03/21 00:10:44;;;;;;;7.33;1.93;;;;;;;-145.69;100.00;52505.78;5106698;28;20208;-83
2023/03/21 00:13:11;;;;;;;2.77;1.77;;;;;;;-145.69;100.00;52420.63;5107387;28;20202;-83
2023/03/21 00:15:48;;;;;;;4.87;1.77;;;;;;;-145.69;100.00;52452.31;5106768;28;20639;-83
2023/03/21 00:18:15;;;;;;;4.43;2.30;;;;;;;-145.69;100.00;52448.34;5105455;28;20197;-83
2023/03/21 00:20:46;;;;;;;7.27;2.33;;;;;;;-145.69;100.00;52456.28;5104561;28;20198;-84
2023/03/21 00:23:13;;;;;;;3.77;2.00;;;;;;;-145.69;100.00;52484.00;5103480;28;20285;-84
2023/03/21 00:25:39;;;;;;;9.80;2.30;;;;;;;-145.69;100.00;52432.50;5104639;28;20194;-83
2023/03/21 00:28:06;;;;;;;2.60;1.83;;;;;;;-145.69;100.00;52485.97;5104169;28;20202;-83
2023/03/21 00:30:32;;;;;;;7.60;2.07;;;;;;;-145.69;100.00;52464.19;5106170;28;20209;-83
2023/03/21 00:33:00;;;;;;;3.03;1.90;;;;;;;-145.69;100.00;52434.47;5104104;28;20206;-83
2023/03/21 00:35:27;;;;;;;3.77;1.80;;;;;;;-145.69;100.00;52495.88;5105638;28;20198;-83
2023/03/21 00:37:53;;;;;;;3.97;2.67;;;;;;;-145.69;100.00;52480.03;5107147;28;20228;-84
2023/03/21 00:40:20;;;;;;;2.93;2.00;;;;;;;-145.69;100.00;52485.97;5102247;28;20202;-83
2023/03/21 00:42:46;;;;;;;3.40;2.13;;;;;;;-145.69;100.00;52462.22;5099003;28;20225;-83
2023/03/21 00:45:14;;;;;;;4.07;1.90;;;;;;;-145.69;100.00;52484.00;5118190;28;20189;-83
2023/03/21 00:47:40;;;;;;;6.27;2.83;;;;;;;-145.69;100.00;52470.13;5126610;28;20193;-84
2023/03/21 00:50:10;;;;;;;3.83;2.10;;;;;;;-145.69;100.00;52460.22;5122759;28;20198;-84
2023/03/21 00:52:37;;;;;;;7.07;1.80;;;;;;;-145.69;100.00;52507.75;5124214;28;20651;-84
2023/03/21 00:55:04;;;;;;;3.53;2.00;;;;;;;-145.69;100.00;52476.06;5125637;28;20228;-83
2023/03/21 00:57:31;;;;;;;6.13;2.20;;;;;;;-145.69;100.00;52428.53;5120078;28;20235;-84
2023/03/21 00:59:58;;;;;;;2.93;1.83;;;;;;;-145.69;100.00;52440.44;5123461;28;20201;-83
2023/03/21 01:02:27;;;;;;;3.73;1.83;;;;;;;-145.69;100.00;52464.19;5123894;28;20203;-83
2023/03/21 01:04:54;;;;;;;3.43;1.77;;;;;;;-145.69;100.00;52434.47;5122449;28;20662;-83
2023/03/21 01:07:22;;;;;;;4.20;2.03;;;;;;;-145.69;100.00;52422.59;5123251;28;20196;-83
2023/03/21 01:09:49;;;;;;;4.03;1.90;;;;;;;-145.69;100.00;52485.97;5125265;28;20204;-83
2023/03/21 01:12:16;;;;;;;2.97;1.70;;;;;;;-145.69;100.00;52456.28;5124912;28;20197;-83
2023/03/21 01:14:42;;;;;;;3.60;2.03;;;;;;;-145.69;100.00;52428.53;5123991;28;20189;-84
2023/03/21 01:17:09;;;;;;;4.10;1.60;;;;;;;-145.69;100.00;52460.22;5122280;28;20221;-83
2023/03/21 01:19:35;;;;;;;3.80;1.43;;;;;;;-145.69;100.00;52428.53;5122581;28;20197;-84
2023/03/21 01:22:02;;;;;;;3.50;1.70;;;;;;;-145.69;100.00;52440.44;5123146;28;20201;-83
2023/03/21 01:24:30;;;;;;;2.60;1.70;;;;;;;-145.69;100.00;52476.06;5120821;28;20202;-83
2023/03/21 01:26:56;;;;;;;3.17;1.90;;;;;;;-145.69;100.00;52474.09;5125487;28;20200;-84
2023/03/21 01:29:23;;;;;;;4.40;1.97;;;;;;;-145.69;100.00;52503.81;5125653;28;20198;-84
2023/03/21 01:31:49;;;;;;;3.70;1.70;;;;;;;-145.69;100.00;52460.22;5107774;28;20265;-84
2023/03/21 01:34:16;;;;;;;4.77;2.20;;;;;;;-145.69;100.00;52452.31;5127579;28;20639;-84
2023/03/21 01:36:44;;;;;;;3.33;2.10;;;;;;;-145.69;100.00;52484.00;5126176;28;20228;-83
2023/03/21 01:39:10;;;;;;;3.47;2.10;;;;;;;-145.69;100.00;52444.38;5126388;28;20250;-84
2023/03/21 01:41:40;;;;;;;5.13;2.20;;;;;;;-145.69;100.00;52460.22;5126045;28;20224;-84
2023/03/21 01:44:07;;;;;;;5.33;2.30;;;;;;;-145.69;100.00;52460.22;5126156;28;20197;-83
2023/03/21 01:46:38;;;;;;;2.73;2.03;;;;;;;-145.69;100.00;52452.31;5122611;28;20201;-84
2023/03/21 01:49:08;;;;;;;9.77;2.17;;;;;;;-145.69;100.00;52487.97;5124465;28;20270;-83
2023/03/21 01:51:41;;;;;;;5.37;2.10;;;;;;;-145.69;100.00;52464.19;5124365;28;20201;-83
2023/03/21 01:54:14;;;;;;;4.90;1.97;;;;;;;-145.69;100.00;52464.19;5125781;28;20204;-84
2023/03/21 01:56:45;;;;;;;2.43;1.70;;;;;;;-145.69;100.00;52468.16;5122753;28;20680;-84
2023/03/21 01:59:16;;;;;;;3.23;1.70;;;;;;;-145.69;100.00;52476.06;5126499;28;20209;-83
2023/03/21 02:01:44;;;;;;;3.37;1.63;;;;;;;-145.69;100.00;52440.44;5125660;28;20678;-83
2023/03/21 02:04:11;;;;;;;8.47;1.93;;;;;;;-145.69;100.00;52468.16;5104998;28;20596;-84
2023/03/21 02:06:46;;;;;;;2.73;1.70;;;;;;;-145.69;100.00;52446.38;5117985;28;20201;-83
2023/03/21 02:09:17;;;;;;;2.40;1.50;;;;;;;-145.69;100.00;52408.75;5126052;28;20264;-84
2023/03/21 02:11:46;;;;;;;5.53;1.73;;;;;;;-145.69;100.00;52448.34;5125257;28;20269;-84
2023/03/21 02:14:15;;;;;;;6.20;1.90;;;;;;;-145.69;100.00;52458.25;5124030;28;20201;-84
2023/03/21 02:16:50;;;;;;;3.47;1.90;;;;;;;-145.69;100.00;52480.03;5124874;28;20229;-84
2023/03/21 02:19:47;;;;;;;2.10;1.63;;;;;;;-145.69;100.00;52485.97;5126072;28;20201;-84
2023/03/21 02:22:31;;;;;;;3.93;1.90;;;;;;;-145.69;100.00;52452.31;5122589;28;20655;-84
2023/03/21 02:25:17;;;;;;;2.37;1.63;;;;;;;-145.69;100.00;52487.97;5124587;28;20197;-83
2023/03/21 02:27:50;;;;;;;7.47;2.17;;;;;;;-145.69;100.00;52440.44;5108507;28;20344;-84
2023/03/21 02:30:37;;;;;;;7.00;1.70;;;;;;;-145.69;100.00;52458.25;5125986;28;20225;-83
2023/03/21 02:33:45;;;;;;;3.37;1.70;;;;;;;-145.69;100.00;52476.06;5125623;28;20201;-83
2023/03/21 02:36:26;;;;;;;3.63;1.63;;;;;;;-145.69;100.00;52476.06;5124532;28;20225;-84
2023/03/21 02:39:03;;;;;;;2.70;1.63;;;;;;;-145.69;100.00;52446.38;5121863;28;20234;-83
2023/03/21 02:41:41;;;;;;;3.90;1.80;;;;;;;-145.69;100.00;52458.25;5116623;28;20589;-83
2023/03/21 02:44:16;;;;;;;3.90;2.00;;;;;;;-145.69;100.00;52442.41;5116040;28;20193;-83
2023/03/21 02:46:50;;;;;;;2.10;1.67;;;;;;;-145.69;100.00;52466.16;5119452;28;20197;-84
2023/03/21 02:49:22;;;;;;;2.13;1.30;;;;;;;-145.69;100.00;52444.38;5124031;28;20197;-84
2023/03/21 02:51:50;;;;;;;3.03;1.60;;;;;;;-145.69;100.00;52472.13;5127341;28;20197;-84
2023/03/21 02:54:21;;;;;;;2.50;1.60;;;;;;;-145.69;100.00;52470.13;5125503;28;20208;-84
2023/03/21 02:56:51;;;;;;;2.50;1.53;;;;;;;-145.69;100.00;52468.16;5127989;28;20589;-83
2023/03/21 02:59:21;;;;;;;1.73;1.60;;;;;;;-145.69;100.00;52442.41;5127385;28;20201;-84
2023/03/21 03:01:50;;;;;;;2.50;1.30;;;;;;;-145.69;100.00;52482.00;5127197;28;20280;-84
2023/03/21 03:04:21;;;;;;;3.60;2.00;;;;;;;-145.69;100.00;52438.44;5126404;28;20197;-84
2023/03/21 03:07:11;;;;;;;3.63;1.53;;;;;;;-145.69;100.00;52436.47;5126406;28;20193;-84
2023/03/21 03:09:54;;;;;;;1.60;1.33;;;;;;;-145.69;100.00;52466.16;5125534;28;20197;-84
2023/03/21 03:12:32;;;;;;;1.80;1.30;;;;;;;-145.69;100.00;52440.44;5125361;28;20193;-84
2023/03/21 03:15:09;;;;;;;3.73;1.33;;;;;;;-145.69;100.00;52428.53;5127931;28;20204;-84
2023/03/21 03:17:51;;;;;;;2.40;1.40;;;;;;;-145.69;100.00;52472.13;5127081;28;20229;-84
2023/03/21 03:20:25;;;;;;;3.07;1.43;;;;;;;-145.69;100.00;52480.03;5110379;28;20673;-84
2023/03/21 03:23:03;;;;;;;6.00;1.40;;;;;;;-145.69;100.00;52487.97;5110190;28;20198;-84
2023/03/21 03:25:35;;;;;;;4.90;1.50;;;;;;;-145.69;100.00;52444.38;5109907;28;20198;-84
2023/03/21 03:28:06;;;;;;;3.10;1.70;;;;;;;-145.69;100.00;52487.97;5105896;28;20202;-84
2023/03/21 03:30:33;;;;;;;2.47;1.60;;;;;;;-145.69;100.00;52478.06;5111488;28;20205;-84
2023/03/21 03:33:02;;;;;;;2.63;1.63;;;;;;;-145.69;100.00;52497.84;5123077;28;20201;-84
2023/03/21 03:35:30;;;;;;;3.57;1.87;;;;;;;-145.69;100.00;52482.00;5123044;28;20201;-83
2023/03/21 03:38:00;;;;;;;2.50;1.60;;;;;;;-145.69;100.00;52464.19;5129447;28;20243;-84
2023/03/21 03:40:30;;;;;;;2.43;1.70;;;;;;;-145.69;100.00;52472.13;5129599;28;20593;-84
2023/03/21 03:43:03;;;;;;;4.83;1.80;;;;;;;-145.69;100.00;52480.03;5111129;28;20229;-84
2023/03/21 03:45:34;;;;;;;2.27;1.60;;;;;;;-145.69;100.00;52400.81;5119298;28;20555;-83
2023/03/21 03:48:07;;;;;;;3.20;1.50;;;;;;;-145.69;100.00;52495.88;5119086;28;20197;-84
2023/03/21 03:50:39;;;;;;;2.30;1.70;;;;;;;-145.69;100.00;52517.66;5123541;28;20208;-84
2023/03/21 03:53:15;;;;;;;4.93;2.00;;;;;;;-145.69;100.00;52474.09;5122296;28;20204;-84
2023/03/21 03:55:43;;;;;;;3.47;2.03;;;;;;;-145.69;100.00;52489.94;5088811;28;20201;-84
2023/03/21 03:58:11;;;;;;;4.40;2.20;;;;;;;-145.69;100.00;52487.97;5120975;28;20213;-84
2023/03/21 04:00:38;;;;;;;1.97;1.50;;;;;;;-145.69;100.00;52470.13;5123209;28;20257;-84
2023/03/21 04:03:05;;;;;;;3.27;1.80;;;;;;;-145.69;100.00;52499.84;5122870;28;20201;-84
2023/03/21 04:05:32;;;;;;;5.37;2.23;;;;;;;-145.69;100.00;52450.31;5119843;28;20686;-84
2023/03/21 04:08:01;;;;;;;2.70;1.80;;;;;;;-145.69;100.00;52480.03;5119370;28;20201;-84
2023/03/21 04:10:27;;;;;;;3.27;1.97;;;;;;;-145.69;100.00;52493.91;5108202;28;20223;-84
2023/03/21 04:12:54;;;;;;;4.23;1.77;;;;;;;-145.69;100.00;52468.16;5100331;28;20202;-84
2023/03/21 04:15:22;;;;;;;6.17;2.10;;;;;;;-145.69;100.00;52468.16;5099205;28;20213;-84
2023/03/21 04:17:49;;;;;;;3.00;2.07;;;;;;;-145.69;100.00;52472.13;5099273;28;20224;-85
2023/03/21 04:20:16;;;;;;;7.53;2.70;;;;;;;-145.69;100.00;52468.16;5100097;28;20198;-84
2023/03/21 04:22:43;;;;;;;5.57;2.47;;;;;;;-145.69;100.00;52489.94;5080022;28;20233;-84
2023/03/21 04:25:10;;;;;;;6.77;2.07;;;;;;;-145.69;100.00;52513.69;5097795;28;20206;-84
2023/03/21 04:27:37;;;;;;;7.37;2.37;;;;;;;-145.69;100.00;52487.97;5098028;28;20556;-84
2023/03/21 04:30:05;;;;;;;4.47;2.40;;;;;;;-145.69;100.00;52499.84;5118468;28;20197;-84
2023/03/21 04:32:38;;;;;;;3.27;2.03;;;;;;;-145.69;100.00;52472.13;5121078;28;20238;-84
2023/03/21 04:35:05;;;;;;;4.03;2.30;;;;;;;-145.69;100.00;52472.13;5122104;28;20202;-84
2023/03/21 04:37:32;;;;;;;2.83;2.00;;;;;;;-145.69;100.00;52484.00;5121356;28;20224;-83
2023/03/21 04:39:59;;;;;;;4.53;2.20;;;;;;;-145.69;100.00;52474.09;5121643;28;20198;-84
2023/03/21 04:42:26;;;;;;;3.37;2.10;;;;;;;-145.69;100.00;52472.13;5129106;28;20288;-84
2023/03/21 04:44:52;;;;;;;3.73;2.23;;;;;;;-145.69;100.00;52515.69;5130089;28;20292;-83
2023/03/21 04:47:20;;;;;;;4.40;2.50;;;;;;;-145.69;100.00;52511.72;5129455;28;20208;-84
2023/03/21 04:49:48;;;;;;;3.97;2.23;;;;;;;-145.69;100.00;52480.03;5128392;28;20197;-84
2023/03/21 04:52:15;;;;;;;3.57;2.23;;;;;;;-145.69;100.00;52511.72;5109397;28;20194;-83
2023/03/21 04:54:42;;;;;;;3.50;2.43;;;;;;;-145.69;100.00;52497.84;5125964;28;20197;-84
2023/03/21 04:57:09;;;;;;;10.23;3.00;;;;;;;-145.69;100.00;52503.81;5121510;28;20292;-84
2023/03/21 04:59:36;;;;;;;14.23;3.10;;;;;;;-145.69;100.00;52480.03;5116231;28;20300;-84
2023/03/21 05:02:03;;;;;;;5.77;2.97;;;;;;;-145.69;100.00;52491.91;5118304;28;20193;-83
2023/03/21 05:04:29;;;;;;;12.37;3.23;;;;;;;-145.69;100.00;52487.97;5124555;28;20644;-84
2023/03/21 05:06:58;;;;;;;11.80;3.30;;;;;;;-145.69;100.00;52495.88;5123339;28;20288;-84
2023/03/21 05:09:26;;;;;;;5.97;2.70;;;;;;;-145.69;100.00;52466.16;5115815;28;20209;-84
2023/03/21 05:11:53;;;;;;;6.83;3.20;;;;;;;-145.69;100.00;52517.66;5116366;28;20619;-82
2023/03/21 05:14:22;;;;;;;8.40;3.30;;;;;;;-145.69;100.00;52464.19;5116617;28;20659;-84
2023/03/21 05:16:51;;;;;;;7.63;3.20;;;;;;;-145.69;100.00;52476.06;5126861;28;20201;-83
2023/03/21 05:19:19;;;;;;;8.83;3.33;;;;;;;-145.69;100.00;52503.81;5122765;28;20316;-83
2023/03/21 05:21:46;;;;;;;6.33;3.23;;;;;;;-145.69;100.00;52527.56;5122196;28;20292;-83
2023/03/21 05:24:16;;;;;;;10.27;3.77;;;;;;;-145.69;100.00;52468.16;5123515;28;20198;-83
2023/03/21 05:26:49;;;;;;;11.03;3.50;;;;;;;-145.69;100.00;52493.91;5126192;28;20198;-83
2023/03/21 05:29:16;;;;;;;7.20;3.10;;;;;;;-145.69;100.00;52493.91;5121593;28;20232;-84
2023/03/21 05:31:43;;;;;;;10.63;3.30;;;;;;;-145.69;100.00;52495.88;5119864;28;20215;-84
2023/03/21 05:34:09;;;;;;;7.20;3.40;;;;;;;-145.69;100.00;52489.94;5121710;28;20205;-83
2023/03/21 05:36:36;;;;;;;5.50;3.57;;;;;;;-145.69;100.00;52513.69;5119765;28;20198;-83
2023/03/21 05:39:03;;;;;;;11.00;3.30;;;;;;;-145.69;100.00;52501.81;5117584;28;20691;-84
2023/03/21 05:41:31;;;;;;;9.27;3.13;;;;;;;-145.69;100.00;52527.56;5115174;28;20217;-83
2023/03/21 05:43:59;;;;;;;5.60;3.13;;;;;;;-145.69;100.00;52489.94;5115453;28;20198;-83
2023/03/21 05:46:28;;;;;;;9.20;3.33;;;;;;;-145.69;100.00;52480.03;5115319;28;20201;-84
2023/03/21 05:48:54;;;;;;;7.27;3.63;;;;;;;-145.69;100.00;52523.59;5114626;28;20201;-83
2023/03/21 05:51:21;;;;;;;9.67;3.40;;;;;;;-145.69;100.00;52493.91;5114466;28;20205;-84
2023/03/21 05:53:48;;;;;;;12.37;3.40;;;;;;;-145.69;100.00;52503.81;5114331;28;20605;-83
2023/03/21 05:56:15;;;;;;;8.00;3.87;;;;;;;-145.69;100.00;52485.97;5113682;28;20237;-84
2023/03/21 05:58:43;;;;;;;7.73;3.47;;;;;;;-145.69;100.00;52458.25;5114008;28;20245;-84
2023/03/21 06:01:09;;;;;;;11.33;3.73;;;;;;;-145.69;100.00;52485.97;5114097;28;20204;-84
2023/03/21 06:03:36;;;;;;;9.23;3.70;;;;;;;-145.69;100.00;52495.88;5114112;28;20201;-84
2023/03/21 06:06:03;;;;;;;10.33;4.10;;;;;;;-145.69;100.00;52507.75;5114090;28;20216;-84
2023/03/21 06:08:30;;;;;;;11.60;3.53;;;;;;;-145.69;100.00;52491.91;5093815;28;20209;-83
2023/03/21 06:10:57;;;;;;;4.33;2.87;;;;;;;-145.69;100.00;52468.16;5093210;28;20281;-84
2023/03/21 06:13:23;;;;;;;5.60;3.10;;;;;;;-145.69;100.00;52482.00;5076320;28;20209;-84
2023/03/21 06:15:51;;;;;;;9.27;3.10;;;;;;;-145.69;100.00;52482.00;5098440;28;20204;-82
2023/03/21 06:18:18;;;;;;;5.73;3.27;;;;;;;-145.69;100.00;52493.91;5095265;28;20237;-84
2023/03/21 06:20:44;;;;;;;7.43;3.03;;;;;;;-145.69;100.00;52480.03;5095909;28;20245;-84
2023/03/21 06:23:11;;;;;;;6.30;2.77;;;;;;;-145.69;100.00;52491.91;5095049;28;20668;-84
2023/03/21 06:25:37;;;;;;;8.30;3.13;;;;;;;-145.69;100.00;52484.00;5094760;28;20281;-84
2023/03/21 06:28:04;;;;;;;10.53;3.70;;;;;;;-145.69;100.00;52511.72;5094872;28;20211;-83
2023/03/21 06:30:30;;;;;;;10.67;3.40;;;;;;;-145.69;100.00;52484.00;5094791;28;20208;-83
2023/03/21 06:32:58;;;;;;;6.60;3.27;;;;;;;-145.69;100.00;52470.13;5094433;28;20198;-84
2023/03/21 06:35:24;;;;;;;8.48;3.85;;;;;;;-145.69;100.00;52452.31;5093455;28;20646;-83
2023/03/21 06:37:51;;;;;;;5.23;3.00;;;;;;;-145.69;100.00;52485.97;5109738;28;20194;-84
2023/03/21 06:40:17;;;;;;;6.23;3.07;;;;;;;-145.69;100.00;52503.81;5115614;28;20552;-84
2023/03/21 06:42:44;;;;;;;8.30;3.47;;;;;;;-145.69;100.00;52460.22;5115455;28;20225;-84
2023/03/21 06:45:11;;;;;;;6.90;2.90;;;;;;;-145.69;100.00;52493.91;5116505;28;20204;-83
2023/03/21 06:47:37;;;;;;;9.80;3.20;;;;;;;-145.69;100.00;52472.13;5120750;28;20201;-84
2023/03/21 06:50:06;;;;;;;5.73;2.80;;;;;;;-145.69;100.00;52487.97;5120646;28;20205;-83
2023/03/21 06:52:33;;;;;;;7.23;2.60;;;;;;;-145.69;100.00;52497.84;5122165;28;20686;-84
2023/03/21 06:54:59;;;;;;;2.87;2.20;;;;;;;-145.69;100.00;52499.84;5122888;28;20659;-83
2023/03/21 06:57:26;;;;;;;5.17;2.80;;;;;;;-145.69;100.00;52519.63;5122460;28;20642;-83
2023/03/21 06:59:52;;;;;;;6.13;3.00;;;;;;;-145.69;100.00;52493.91;5120841;28;20221;-84
2023/03/21 07:02:19;;;;;;;5.70;2.77;;;;;;;-145.69;100.00;52470.13;5122607;28;20201;-83
2023/03/21 07:04:46;;;;;;;14.33;3.50;;;;;;;-145.69;100.00;52460.22;5124264;28;20197;-83
2023/03/21 07:07:14;;;;;;;8.67;3.97;;;;;;;-145.69;100.00;52480.03;5122521;28;20193;-83
2023/03/21 07:09:41;;;;;;;5.73;3.30;;;;;;;-145.69;100.00;52499.84;5122702;28;20300;-83
2023/03/21 07:12:07;;;;;;;6.03;3.20;;;;;;;-145.69;100.00;52505.78;5122937;28;20202;-83
2023/03/21 07:14:34;;;;;;;8.83;3.13;;;;;;;-145.69;100.00;52460.22;5130095;28;20227;-83
2023/03/21 07:17:00;;;;;;;6.57;2.73;;;;;;;-145.69;100.00;52444.38;5129818;28;20556;-83
2023/03/21 07:19:27;;;;;;;5.17;2.80;;;;;;;-145.69;100.00;52448.34;5108574;28;20221;-83
2023/03/21 07:21:53;;;;;;;4.03;2.40;;;;;;;-145.69;100.00;52480.03;5122345;28;20204;-83
2023/03/21 07:24:21;;;;;;;6.43;2.67;;;;;;;-145.69;100.00;52440.44;5123825;28;20204;-83
2023/03/21 07:26:47;;;;;;;3.03;2.20;;;;;;;-145.69;100.00;52511.72;5123596;28;20208;-83
2023/03/21 07:29:16;;;;;;;4.90;1.93;;;;;;;-145.69;100.00;52456.28;5122282;28;20659;-83
2023/03/21 07:31:42;;;;;;;2.37;1.90;;;;;;;-145.69;100.00;52464.19;5123379;28;20619;-83
2023/03/21 07:34:09;;;;;;;2.83;1.70;;;;;;;-145.69;100.00;52468.16;5106009;28;20676;-83
2023/03/21 07:36:35;;;;;;;2.87;1.90;;;;;;;-145.69;100.00;52482.00;5123549;28;20208;-83
2023/03/21 07:39:02;;;;;;;2.43;1.80;;;;;;;-145.69;100.00;52426.56;5123904;28;20222;-83
2023/03/21 07:41:30;;;;;;;3.37;2.00;;;;;;;-145.69;100.00;52428.53;5123628;28;20202;-83
2023/03/21 07:43:56;;;;;;;3.60;2.00;;;;;;;-145.69;100.00;52432.50;5103287;28;20213;-83
2023/03/21 07:46:23;;;;;;;3.33;2.00;;;;;;;-145.69;100.00;52464.19;5107148;28;20202;-83
2023/03/21 07:48:50;;;;;;;4.53;1.80;;;;;;;-145.69;100.00;52476.06;5108437;28;20202;-83
2023/03/21 07:51:16;;;;;;;3.13;2.07;;;;;;;-145.69;100.00;52420.63;5109416;28;20210;-83
2023/03/21 07:53:47;;;;;;;2.30;1.80;;;;;;;-145.69;100.00;52426.56;5105126;28;20212;-83
2023/03/21 07:56:14;;;;;;;2.60;1.97;;;;;;;-145.69;100.00;52428.53;5102806;28;20671;-83
2023/03/21 07:58:42;;;;;;;6.67;2.47;;;;;;;-145.69;100.00;52408.75;5099559;28;20222;-83
2023/03/21 08:01:09;;;;;;;5.97;2.20;;;;;;;-145.69;100.00;52416.66;5100512;28;20209;-83
2023/03/21 08:03:35;;;;;;;4.77;2.40;;;;;;;-145.69;100.00;52384.97;5100598;28;20201;-83
2023/03/21 08:06:01;;;;;;;3.57;2.37;;;;;;;-145.69;100.00;52388.94;5102106;28;20198;-83
2023/03/21 08:08:28;;;;;;;4.20;2.80;;;;;;;-145.69;100.00;52386.97;5102732;28;20213;-83
2023/03/21 08:10:55;;;;;;;4.23;2.70;;;;;;;-145.69;100.00;52367.16;5105286;28;20203;-83
2023/03/21 08:13:21;;;;;;;4.33;2.80;;;;;;;-145.69;100.00;52392.91;5107565;28;20205;-83
2023/03/21 08:15:49;;;;;;;4.87;3.47;;;;;;;-145.69;100.00;52384.97;5109123;28;20202;-83
2023/03/21 08:18:16;;;;;;;4.67;3.13;;;;;;;-145.69;100.00;52386.97;5107458;28;20198;-84
2023/03/21 08:20:42;;;;;;;5.50;3.40;;;;;;;-145.69;100.00;52369.13;5105320;28;20202;-83
2023/03/21 08:23:09;;;;;;;5.67;3.20;;;;;;;-145.69;100.00;52428.53;5104212;28;20205;-83
2023/03/21 08:25:35;;;;;;;4.60;2.92;;;;;;;-145.69;100.00;52424.59;5102849;28;20208;-84
2023/03/21 08:28:02;;;;;;;7.10;3.05;;;;;;;-145.69;100.00;52386.97;5102771;28;20209;-83
2023/03/21 08:30:29;;;;;;;3.90;2.50;;;;;;;-145.69;100.00;52365.16;5103194;28;20206;-83
2023/03/21 08:32:58;;;;;;;5.40;2.60;;;;;;;-145.69;97.92;52400.81;5104746;28;20202;-84
2023/03/21 08:35:25;;;;;;;3.87;2.77;;;;;;;-145.69;99.19;52396.84;5104613;28;20198;-83
2023/03/21 08:37:52;;;;;;;3.63;2.53;;;;;;;-145.69;97.26;52373.09;5101148;28;20190;-84
2023/03/21 08:40:19;;;;;;;6.15;2.70;;;;;;;-145.69;100.00;52369.13;5098773;28;20229;-83
2023/03/21 08:42:46;;;;;;;5.20;2.53;;;;;;;-145.69;98.58;52379.03;5109247;28;20229;-83
2023/03/21 08:45:14;;;;;;;3.95;2.10;;;;;;;-145.69;96.59;52373.09;5116768;28;20193;-83
2023/03/21 08:47:40;;;;;;;3.53;2.13;;;;;;;-145.69;100.00;52365.16;5116324;28;20262;-82
2023/03/21 08:50:12;;;;;;;3.72;2.00;;;;;;;-145.69;96.52;52365.16;5116458;28;20204;-82
2023/03/21 08:52:38;;;;;;;4.28;2.45;;;;;;;-145.69;95.99;52365.16;5116439;28;20204;-83
2023/03/21 08:55:05;;;;;;;6.47;2.80;;;;;;;-145.69;95.95;52355.28;5116955;28;20279;-81
2023/03/21 08:57:32;;;;;;;5.05;2.15;;;;;;;-145.69;88.00;52341.41;5115591;28;20564;-84
2023/03/21 08:59:59;;;;;;;5.20;2.00;;;;;;;-145.69;92.50;52390.91;5115664;28;20229;-83
2023/03/21 09:02:25;;;;;;;5.13;2.25;;;;;;;-145.69;81.87;52333.47;5115483;28;20189;-84
2023/03/21 09:04:53;;;;;;;2.50;1.80;;;;;;;-145.69;84.18;52333.47;5115474;28;20204;-83
2023/03/21 09:07:25;;;;;;;6.90;2.40;;;;;;;-145.69;83.60;52365.16;5115376;28;20225;-81
2023/03/21 09:09:52;;;;;;;4.05;1.98;;;;;;;-145.69;87.83;52384.97;5115657;28;20227;-83
2023/03/21 09:12:19;;;;;;;4.68;2.40;;;;;;;-145.69;83.66;52343.38;5116732;28;20652;-83
2023/03/21 09:14:45;;;;;;;4.38;2.28;;;;;;;-145.69;84.69;52329.53;5116184;28;20640;-83
2023/03/21 09:17:12;;;;;;;3.80;2.10;;;;;;;-145.69;75.92;52333.47;5115920;28;20193;-82
2023/03/21 09:19:39;;;;;;;4.97;2.58;;;;;;;-145.69;74.75;52341.41;5115260;28;20450;-83
2023/03/21 09:22:09;;;;;;;4.57;2.05;;;;;;;-145.69;75.00;52369.13;5116291;28;20201;-84
2023/03/21 09:24:37;;;;;;;3.38;2.40;;;;;;;-145.69;75.42;52317.66;5115376;28;20201;-84
2023/03/21 09:27:04;;;;;;;3.72;2.30;;;;;;;-145.69;72.67;52301.81;5115477;28;20304;-84
2023/03/21 09:29:33;;;;;;;4.00;2.10;;;;;;;-145.69;74.35;52349.31;5115420;28;20549;-84
2023/03/21 09:32:00;;;;;;;3.97;2.60;;;;;;;-145.69;72.17;52357.25;5115294;28;20548;-84
2023/03/21 09:34:27;;;;;;;4.90;2.25;;;;;;;-145.69;75.15;52309.72;5115364;28;20652;-84
2023/03/21 09:36:55;;;;;;;5.57;2.38;;;;;;;-145.69;69.24;52313.69;5116339;28;20194;-84
2023/03/21 09:39:22;;;;;;;6.43;2.60;;;;;;;-145.69;67.35;52357.25;5094943;28;20253;-84
2023/03/21 09:42:08;;;;;;;5.15;2.10;;;;;;;-145.69;70.37;52341.41;5094252;28;20202;-85
2023/03/21 09:44:45;;;;;;;2.83;1.90;;;;;;;-145.69;66.06;52329.53;5100374;28;20189;-85
2023/03/21 09:47:19;;;;;;;3.20;2.13;;;;;;;-145.69;59.49;52293.88;5115374;28;20296;-84
2023/03/21 09:49:50;;;;;;;2.78;1.85;;;;;;;-145.69;57.04;52317.66;5116519;28;20201;-84
2023/03/21 09:52:21;;;;;;;5.45;2.13;;;;;;;-145.69;59.87;52335.47;5117816;28;20292;-83
2023/03/21 09:54:48;;;;;;;4.45;1.65;;;;;;;-145.69;62.18;52313.69;5114396;28;20201;-82
2023/03/21 09:57:24;;;;;;;3.42;1.83;;;;;;;-145.69;66.20;52289.91;5114490;28;20205;-82
2023/03/21 09:59:53;;;;;;;3.15;1.63;;;;;;;-145.69;62.29;52303.78;5110115;28;20312;-82
2023/03/21 10:02:35;;;;;;;3.55;1.90;;;;;;;-145.69;60.33;52299.81;5101226;28;20189;-82
2023/03/21 10:05:07;;;;;;;3.85;1.90;;;;;;;-145.69;59.21;52262.19;5113912;28;20205;-83
2023/03/21 10:07:40;;;;;;;3.60;1.80;;;;;;;-145.69;54.97;52282.00;5113823;28;20213;-83
2023/03/21 10:10:12;;;;;;;1.75;1.38;;;;;;;-145.69;52.01;52311.69;5113826;28;20201;-83
2023/03/21 10:12:41;;;;;;;2.65;1.50;;;;;;;-145.69;49.17;52280.00;5113242;28;20193;-83
2023/03/21 10:15:13;;;;;;;2.78;1.75;;;;;;;-145.69;48.27;52270.13;5113835;28;20198;-84
2023/03/21 10:17:42;;;;;;;2.92;1.95;;;;;;;-145.69;50.08;52258.22;5113330;28;20198;-84
2023/03/21 10:20:14;;;;;;;4.53;1.83;;;;;;;-145.69;51.98;52289.91;5113550;28;20314;-83
2023/03/21 10:22:42;;;;;;;3.28;2.10;;;;;;;-145.69;49.78;52276.06;5113818;28;20624;-83
2023/03/21 10:25:15;;;;;;;2.97;1.90;;;;;;;-145.69;52.31;52285.97;5113630;28;20276;-83
2023/03/21 10:27:44;;;;;;;3.20;1.90;;;;;;;-145.69;53.32;52256.25;5113553;28;20205;-84
2023/03/21 10:30:21;;;;;;;2.60;2.03;;;;;;;-145.69;57.65;52274.06;5113373;28;20308;-83
2023/03/21 10:32:48;;;;;;;2.70;1.70;;;;;;;-145.69;57.03;52268.13;5113331;28;20313;-83
2023/03/21 10:35:15;;;;;;;2.90;1.63;;;;;;;-145.69;55.67;52299.81;5113339;28;20196;-83
2023/03/21 10:37:41;;;;;;;5.00;2.22;;;;;;;-145.69;58.81;52309.72;5113069;28;20770;-81
2023/03/21 10:40:15;;;;;;;3.40;2.00;;;;;;;-145.69;61.21;52307.75;5113067;28;20586;-83
2023/03/21 10:42:44;;;;;;;4.13;1.70;;;;;;;-145.69;56.92;52278.03;5113076;28;20629;-83
2023/03/21 10:45:17;;;;;;;3.80;2.30;;;;;;;-145.69;56.87;52285.97;5113708;28;20200;-83
2023/03/21 10:47:48;;;;;;;2.17;1.48;;;;;;;-145.69;53.36;52301.81;5113528;28;20207;-83
2023/03/21 10:50:18;;;;;;;3.60;2.10;;;;;;;-145.69;58.78;52262.19;5113072;28;20220;-83
2023/03/21 10:52:49;;;;;;;4.32;2.28;;;;;;;-145.69;57.20;52297.84;5113317;28;20761;-83
2023/03/21 10:55:21;;;;;;;4.05;1.95;;;;;;;-145.69;58.32;52270.13;5113236;28;20198;-83
2023/03/21 10:57:54;;;;;;;3.22;2.42;;;;;;;-145.69;63.19;52305.75;5113486;28;20574;-83
2023/03/21 11:00:24;;;;;;;7.40;1.70;;;;;;;-145.69;59.01;52276.06;5113234;28;20221;-83
2023/03/21 11:02:53;;;;;;;5.03;1.88;;;;;;;-145.69;59.50;52305.75;5113530;28;20197;-84
2023/03/21 11:05:24;;;;;;;5.43;2.08;;;;;;;-145.69;51.18;52270.13;5113169;28;20712;-83
2023/03/21 11:08:03;;;;;;;4.22;2.05;;;;;;;-145.69;54.16;52282.00;5112995;28;20205;-83
2023/03/21 11:10:32;;;;;;;2.80;1.60;;;;;;;-145.69;55.52;52262.19;5113438;28;20595;-84
2023/03/21 11:13:05;;;;;;;3.58;1.73;;;;;;;-145.69;50.98;52301.81;5112986;28;20227;-83
2023/03/21 11:15:33;;;;;;;4.00;1.50;;;;;;;-145.69;51.61;52262.19;5112667;28;20212;-83
2023/03/21 11:18:12;;;;;;;2.53;1.60;;;;;;;-145.69;52.47;52272.09;5112938;28;20194;-83
2023/03/21 11:20:44;;;;;;;2.05;1.58;;;;;;;-145.69;52.06;52280.00;5112953;28;20217;-83